Millenium Air

Millenium Air Since 1998



 METAR AND TAF INFORMATION
METAR FOR FNMO
ADDS - METARS form results

(1939 UTC 21 April 2021)
Data provider http://aviationweather.gov/metar/data/
 
Forecast for: FNMO (NAMIBE , AO)
Text: TAF FNMO 211100Z 2112/2124 25006KT CAVOK
Forecast period: 1200 to 2200 UTC 21 April 2021
Forecast type: FROM: standard forecast or significant change
Winds: from the WSW (250 degrees) at 7 MPH (6 knots; 3.1 m/s)
Visibility: 6 or more miles (10+ km)
Ceiling: unknown
Clouds: missing
Weather: NSW  (no significant weather)
Text: BECMG 2122/2124 VRB02KT 9999 FEW022
Forecast period: 2200 UTC 21 April 2021 to 0000 UTC 22 April 2021
Forecast type: BECOMING: Conditions expected to become as follows by 0000 UTC 22 April 2021
Winds: variable direction winds at 2 MPH (2 knots; 1.0 m/s)
Visibility: 6 or more miles (10+ km)
Ceiling: at least 12,000 feet AGL
Clouds: few clouds at 2200 feet AGL
Weather: NSW  (no significant weather)

 AIRPORT MAP

 RUNWAY INFORMATION
Runway 08 Runway length 8202 ft Runway width 148 ft
Runway elevation 210 ft Runway displaced threshold 0 ft Runway heading 66
Runway 26 Runway length 8202 ft Runway width 148 ft
Runway elevation 210 ft Runway displaced threshold 0 ft Runway heading 246

 AIRPORT FREQUENCIES
Type AFIS Name AFIS Frequency 118.1 MHZ

 AIRPORT NEAR NAVIGATION AIDS
Type NDB Name Namibe Frequency 358 KHZ
Type VOR-DME Name Namibe Frequency 114100 KHZ